Entgelte PDF Drucken E-Mail

 

 

 

Die aktuellen Entgelte können Sie der Entgeltordnung entnehmen, die Sie hier als PDF herunterladen können.

 

Eine schnelle Übersicht über unsere seit 01. Februar 2007 gültigen Lande- und Abstellentgelte erhalten Sie durch Klick auf die Punkte 'Lande- und Anstellentgelte'. Produktinformationen über unsere angebotenen 'Kraftstoffe und  Motorenöle' sowie die Entgelte erhalten Sie bei einem Klick auf diesen Punkt.

 

 

(Zum Öffnen benötigen Sie den Adobe Acrobat Reader, den Sie kostenfrei unter http://get.adobe.com/de/reader/ herunterladen können)

 

Zufallsbild

Aktuelle Termine

Mo Di Mi Do Fr Sa So
1 2 3 4 5 6 7
8 9 10 11 12 13 14
15 16 17 18 19 20 21
22 23 24 25 26 27 28
29 30 31 1 2 3 4

Pilotenwetter

[source: ADDS]
METAR
EDDH 161520Z 25009KT 9999 -SHRA SCT008 BKN022 03/01 Q0987 TEMPO 28015G25KT 4000 BKN014CB =
TAF
TAF EDDH 161100Z 1612/1718 24010KT 9999 FEW010 SCT015 TEMPO 1612/1616 24015G25KT SHRA BKN007CB PROB30 TEMPO 1612/1616 3000 TSRAGS TEMPO 1616/1622 2500 SHRASN BKN007CB PROB30 TEMPO 1622/1718 2000 SHSN BKN007CB TEMPO 1710/1716 26015G25KT =